createdAt,value
2019-04-20T00:02:57.130Z,8.30
2019-04-20T00:05:27.454Z,8.40
2019-04-20T00:07:57.101Z,8.20
2019-04-20T00:10:44.755Z,8.10
2019-04-20T00:13:17.620Z,8.10
2019-04-20T00:15:43.268Z,8.00
2019-04-20T00:18:13.492Z,8.00
2019-04-20T00:21:00.252Z,7.90
2019-04-20T00:23:43.727Z,7.90
2019-04-20T00:26:26.573Z,7.90
2019-04-20T00:29:07.482Z,7.80
2019-04-20T00:31:49.225Z,7.70
2019-04-20T00:34:23.587Z,7.70
2019-04-20T00:36:56.165Z,7.60
2019-04-20T00:39:25.753Z,7.60
2019-04-20T00:42:06.563Z,7.60
2019-04-20T00:45:05.874Z,7.60
2019-04-20T00:47:47.730Z,7.50
2019-04-20T00:50:29.784Z,7.50
2019-04-20T00:53:07.944Z,7.40
2019-04-20T00:55:29.261Z,7.40
2019-04-20T00:58:08.395Z,7.30
2019-04-20T01:01:00.393Z,7.30
2019-04-20T01:03:48.267Z,7.20
2019-04-20T01:06:36.825Z,7.20
2019-04-20T01:09:20.296Z,7.10
2019-04-20T01:11:56.493Z,7.10
2019-04-20T01:14:35.823Z,7.00
2019-04-20T01:17:11.682Z,6.90
2019-04-20T01:19:43.342Z,6.90
2019-04-20T01:22:39.473Z,7.00
2019-04-20T01:24:56.599Z,6.90
2019-04-20T01:27:51.541Z,6.80
2019-04-20T01:30:20.565Z,6.70
2019-04-20T01:33:11.516Z,6.70
2019-04-20T01:35:43.909Z,6.70
2019-04-20T01:38:16.972Z,6.60
2019-04-20T01:40:31.956Z,6.60
2019-04-20T01:43:04.094Z,6.60
2019-04-20T01:45:37.706Z,6.60
2019-04-20T01:48:08.190Z,6.50
2019-04-20T01:50:54.736Z,6.50
2019-04-20T01:53:51.366Z,6.50
2019-04-20T01:56:16.996Z,6.50
2019-04-20T01:59:30.894Z,6.40
2019-04-20T02:02:14.040Z,6.40
2019-04-20T02:04:49.342Z,6.30
2019-04-20T02:07:25.470Z,6.30
2019-04-20T02:10:03.608Z,6.20
2019-04-20T02:12:37.271Z,6.20
2019-04-20T02:15:13.022Z,6.20
2019-04-20T02:17:46.591Z,6.30
2019-04-20T02:20:41.033Z,6.30
2019-04-20T02:23:03.209Z,6.30
2019-04-20T02:25:26.986Z,6.20
2019-04-20T02:28:22.706Z,6.20
2019-04-20T02:34:03.941Z,6.20
2019-04-20T02:36:58.648Z,6.20
2019-04-20T02:41:57.980Z,6.20
2019-04-20T02:44:41.744Z,6.10
2019-04-20T02:49:40.382Z,6.10
2019-04-20T02:54:47.232Z,6.00
2019-04-20T02:57:32.695Z,6.00
2019-04-20T03:00:05.530Z,6.00
2019-04-20T03:02:38.567Z,6.00
2019-04-20T03:04:45.908Z,6.00
2019-04-20T03:07:28.151Z,6.10
2019-04-20T03:10:09.474Z,5.90
2019-04-20T03:12:47.818Z,5.90
2019-04-20T03:15:24.038Z,5.80
2019-04-20T03:18:00.110Z,5.90
2019-04-20T03:20:43.523Z,5.90
2019-04-20T03:23:35.617Z,6.00
2019-04-20T03:26:12.788Z,6.00
2019-04-20T03:28:54.124Z,5.90
2019-04-20T03:34:38.311Z,5.80
2019-04-20T03:36:50.262Z,5.80
2019-04-20T03:39:22.180Z,5.80
2019-04-20T03:41:40.491Z,5.80
2019-04-20T03:44:11.963Z,5.80
2019-04-20T03:46:45.529Z,5.70
2019-04-20T03:49:27.903Z,5.70
2019-04-20T03:52:03.712Z,5.70
2019-04-20T03:54:40.783Z,5.60
2019-04-20T03:57:40.975Z,5.60
2019-04-20T04:00:36.510Z,5.50
2019-04-20T04:03:34.942Z,5.50
2019-04-20T04:05:55.980Z,5.50
2019-04-20T04:08:27.017Z,5.40
2019-04-20T04:11:03.237Z,5.40
2019-04-20T04:13:21.149Z,5.40
2019-04-20T04:16:08.792Z,5.40
2019-04-20T04:18:40.824Z,5.40
2019-04-20T04:21:13.879Z,5.40
2019-04-20T04:24:02.236Z,5.40
2019-04-20T04:26:38.982Z,5.40
2019-04-20T04:29:27.308Z,5.30
2019-04-20T04:32:48.258Z,5.30
2019-04-20T04:34:47.626Z,5.20
2019-04-20T04:37:24.282Z,5.20
2019-04-20T04:40:00.970Z,5.10
2019-04-20T04:42:28.100Z,5.10
2019-04-20T04:44:48.430Z,5.10
2019-04-20T04:47:18.073Z,5.10
2019-04-20T04:49:57.328Z,5.10
2019-04-20T04:52:29.401Z,5.00
2019-04-20T04:55:13.381Z,5.00
2019-04-20T04:57:37.527Z,5.00
2019-04-20T05:00:19.930Z,5.00
2019-04-20T05:03:00.290Z,4.90
2019-04-20T05:06:11.740Z,4.90
2019-04-20T05:08:38.727Z,4.90
2019-04-20T05:11:04.796Z,4.90
2019-04-20T05:13:42.834Z,4.90
2019-04-20T05:16:33.838Z,4.90
2019-04-20T05:19:19.072Z,4.90
2019-04-20T05:22:13.547Z,4.90
2019-04-20T05:25:10.662Z,5.00
2019-04-20T05:27:59.358Z,5.00
2019-04-20T05:30:20.467Z,5.00
2019-04-20T05:32:58.989Z,5.10
2019-04-20T05:35:51.263Z,5.20
2019-04-20T05:38:34.032Z,5.30
2019-04-20T05:40:51.446Z,5.40
2019-04-20T05:43:38.229Z,5.50
2019-04-20T05:46:06.042Z,5.50
2019-04-20T05:48:48.898Z,5.60
2019-04-20T05:51:29.533Z,5.70
2019-04-20T05:54:00.870Z,5.80
2019-04-20T05:56:43.874Z,6.00
2019-04-20T05:59:16.172Z,6.10
2019-04-20T06:01:59.073Z,6.20
2019-04-20T06:04:49.069Z,6.30
2019-04-20T06:07:21.502Z,6.50
2019-04-20T06:09:54.499Z,6.60
2019-04-20T06:12:28.427Z,6.70
2019-04-20T06:15:12.735Z,6.90
2019-04-20T06:18:02.551Z,7.10
2019-04-20T06:20:41.227Z,7.30
2019-04-20T06:26:26.736Z,7.80
2019-04-20T06:28:51.911Z,8.00
2019-04-20T06:31:32.504Z,8.20
2019-04-20T06:34:48.994Z,8.40
2019-04-20T06:37:02.123Z,8.60
2019-04-20T06:39:44.954Z,9.00
2019-04-20T06:42:11.153Z,9.50
2019-04-20T06:44:45.766Z,9.90
2019-04-20T06:47:33.727Z,9.90
2019-04-20T06:49:56.704Z,10.00
2019-04-20T06:52:34.418Z,10.00
2019-04-20T06:55:19.924Z,10.00
2019-04-20T06:57:51.651Z,10.10
2019-04-20T07:00:32.165Z,10.30
2019-04-20T07:03:04.686Z,10.40
2019-04-20T07:08:16.849Z,10.50
2019-04-20T07:10:43.912Z,10.70
2019-04-20T07:13:07.234Z,11.00
2019-04-20T07:15:47.075Z,11.00
2019-04-20T07:18:31.246Z,11.20
2019-04-20T07:21:06.462Z,11.30
2019-04-20T07:23:42.686Z,11.50
2019-04-20T07:26:16.822Z,11.90
2019-04-20T07:28:48.599Z,12.20
2019-04-20T07:31:15.849Z,12.30
2019-04-20T07:33:46.407Z,12.70
2019-04-20T07:36:30.630Z,13.30
2019-04-20T07:39:02.103Z,13.90
2019-04-20T07:41:33.166Z,14.00
2019-04-20T07:44:18.510Z,13.60
2019-04-20T07:46:56.386Z,13.70
2019-04-20T07:49:18.214Z,13.80
2019-04-20T07:51:45.562Z,14.40
2019-04-20T07:54:37.447Z,14.10
2019-04-20T07:57:12.733Z,14.30
2019-04-20T07:59:31.490Z,14.30
2019-04-20T08:02:33.612Z,14.30
2019-04-20T08:04:58.199Z,14.10
2019-04-20T08:07:13.669Z,14.50
2019-04-20T08:09:51.460Z,14.50
2019-04-20T08:12:49.926Z,14.40
2019-04-20T08:16:00.824Z,14.40
2019-04-20T08:18:13.661Z,14.40
2019-04-20T08:20:28.003Z,14.70
2019-04-20T08:22:58.870Z,14.90
2019-04-20T08:25:23.549Z,14.90
2019-04-20T08:28:06.392Z,14.90
2019-04-20T08:31:09.072Z,14.90
2019-04-20T08:33:55.031Z,15.00
2019-04-20T08:36:23.195Z,15.00
2019-04-20T08:39:13.826Z,15.20
2019-04-20T08:41:24.974Z,15.10
2019-04-20T08:44:08.193Z,15.20
2019-04-20T08:46:34.852Z,15.20
2019-04-20T08:49:12.921Z,15.50
2019-04-20T08:51:49.647Z,15.70
2019-04-20T08:54:16.564Z,15.70
2019-04-20T08:56:41.521Z,15.60
2019-04-20T08:59:07.621Z,15.60
2019-04-20T09:01:44.721Z,15.90
2019-04-20T09:04:34.844Z,16.10
2019-04-20T09:07:06.452Z,16.40
2019-04-20T09:09:58.065Z,16.50
2019-04-20T09:12:26.440Z,16.80
2019-04-20T09:14:48.732Z,16.90
2019-04-20T09:17:38.972Z,17.50
2019-04-20T09:20:06.303Z,17.60
2019-04-20T09:23:11.622Z,17.40
2019-04-20T09:25:50.087Z,17.20
2019-04-20T09:28:32.203Z,17.30
2019-04-20T09:31:20.177Z,17.20
2019-04-20T09:34:24.966Z,17.20
2019-04-20T09:37:24.790Z,17.30
2019-04-20T09:40:15.868Z,17.20
2019-04-20T09:42:55.688Z,17.20
2019-04-20T09:45:49.907Z,17.40
2019-04-20T09:48:23.056Z,17.70
2019-04-20T09:51:11.368Z,17.60
2019-04-20T09:53:41.933Z,17.90
2019-04-20T09:56:16.900Z,17.90
2019-04-20T09:58:52.108Z,17.80
2019-04-20T10:01:15.720Z,18.00
2019-04-20T10:03:47.729Z,18.10
2019-04-20T10:06:35.645Z,18.10
2019-04-20T10:09:01.893Z,18.10
2019-04-20T10:11:31.925Z,18.40
2019-04-20T10:14:06.600Z,18.40
2019-04-20T10:16:37.888Z,18.50
2019-04-20T10:19:20.618Z,18.50
2019-04-20T10:21:48.612Z,18.70
2019-04-20T10:24:18.861Z,18.90
2019-04-20T10:26:54.576Z,19.40
2019-04-20T10:29:25.773Z,19.80
2019-04-20T10:32:00.671Z,20.10
2019-04-20T10:34:30.559Z,20.30
2019-04-20T10:37:15.716Z,20.00
2019-04-20T10:39:58.582Z,20.00
2019-04-20T10:42:32.204Z,20.10
2019-04-20T10:45:05.868Z,20.10
2019-04-20T10:47:34.952Z,20.20
2019-04-20T10:50:11.410Z,20.70
2019-04-20T10:52:47.749Z,20.80
2019-04-20T10:55:39.741Z,20.40
2019-04-20T10:58:07.327Z,20.40
2019-04-20T11:00:46.132Z,20.60
2019-04-20T11:03:19.781Z,20.90
2019-04-20T11:05:52.935Z,21.10
2019-04-20T11:08:22.418Z,21.30
2019-04-20T11:11:05.149Z,21.50
2019-04-20T11:13:30.924Z,21.50
2019-04-20T11:16:06.825Z,21.20
2019-04-20T11:18:37.783Z,20.90
2019-04-20T11:21:09.193Z,21.00
2019-04-20T11:23:54.223Z,21.60
2019-04-20T11:26:14.361Z,22.00
2019-04-20T11:28:53.825Z,22.40
2019-04-20T11:31:37.208Z,22.90
2019-04-20T11:34:03.918Z,23.20
2019-04-20T11:36:37.154Z,22.60
2019-04-20T11:39:09.011Z,22.50
2019-04-20T11:41:45.717Z,22.90
2019-04-20T11:44:19.997Z,23.00
2019-04-20T11:46:54.511Z,23.30
2019-04-20T11:49:31.066Z,23.40
2019-04-20T11:52:05.544Z,23.50
2019-04-20T11:54:42.270Z,24.10
2019-04-20T11:57:19.579Z,24.50
2019-04-20T11:59:51.125Z,24.90
2019-04-20T12:02:58.883Z,24.50
2019-04-20T12:05:41.323Z,24.70
2019-04-20T12:08:09.100Z,24.70
2019-04-20T12:10:50.253Z,24.50
2019-04-20T12:13:18.433Z,23.70
2019-04-20T12:15:52.264Z,23.40
2019-04-20T12:18:27.491Z,23.10
2019-04-20T12:21:05.021Z,23.20
2019-04-20T12:23:42.235Z,23.10
2019-04-20T12:26:13.054Z,23.20
2019-04-20T12:28:49.586Z,23.20
2019-04-20T12:31:24.700Z,22.90
2019-04-20T12:34:00.199Z,22.70
2019-04-20T12:36:35.230Z,22.70
2019-04-20T12:39:09.097Z,22.70
2019-04-20T12:41:50.454Z,22.50
2019-04-20T12:44:24.092Z,22.60
2019-04-20T12:46:57.486Z,22.60
2019-04-20T12:49:23.773Z,22.40
2019-04-20T12:52:01.619Z,22.30
2019-04-20T12:54:36.902Z,22.30
2019-04-20T12:57:11.507Z,22.20
2019-04-20T12:59:45.612Z,22.30
2019-04-20T13:02:20.418Z,22.30
2019-04-20T13:04:59.534Z,22.40
2019-04-20T13:07:38.081Z,22.20
2019-04-20T13:10:03.952Z,22.40
2019-04-20T13:13:02.563Z,22.30
2019-04-20T13:15:46.650Z,22.40
2019-04-20T13:18:30.122Z,22.40
2019-04-20T13:21:03.259Z,22.30
2019-04-20T13:23:33.042Z,22.40
2019-04-20T13:26:05.873Z,22.60
2019-04-20T13:28:43.458Z,22.50
2019-04-20T13:31:12.035Z,22.40
2019-04-20T13:33:49.349Z,22.50
2019-04-20T13:36:21.910Z,22.50
2019-04-20T13:38:54.486Z,22.50
2019-04-20T13:41:57.752Z,22.50
2019-04-20T13:44:18.001Z,22.50
2019-04-20T13:46:47.115Z,22.60
2019-04-20T13:49:31.473Z,22.30
2019-04-20T13:51:58.829Z,22.50
2019-04-20T13:54:33.667Z,22.80
2019-04-20T13:57:06.189Z,22.90
2019-04-20T13:59:53.257Z,22.70
2019-04-20T14:02:33.192Z,22.80
2019-04-20T14:05:02.954Z,22.70
2019-04-20T14:07:33.453Z,22.70
2019-04-20T14:10:01.925Z,22.70
2019-04-20T14:12:37.165Z,22.90
2019-04-20T14:15:06.920Z,22.70
2019-04-20T14:17:43.390Z,22.60
2019-04-20T14:20:21.912Z,22.70
2019-04-20T14:22:52.824Z,22.70
2019-04-20T14:25:27.070Z,22.70
2019-04-20T14:28:02.762Z,22.70
2019-04-20T14:30:40.412Z,22.80
2019-04-20T14:33:12.886Z,23.00
2019-04-20T14:35:47.005Z,23.20
2019-04-20T14:38:22.193Z,23.30
2019-04-20T14:41:00.213Z,23.30
2019-04-20T14:43:32.998Z,23.40
2019-04-20T14:46:08.645Z,23.40
2019-04-20T14:48:38.491Z,23.20
2019-04-20T14:51:17.350Z,23.00
2019-04-20T14:53:53.842Z,23.00
2019-04-20T14:56:27.318Z,22.80
2019-04-20T14:59:09.679Z,22.90
2019-04-20T15:01:45.495Z,22.90
2019-04-20T15:04:19.515Z,22.90
2019-04-20T15:06:50.623Z,22.90
2019-04-20T15:09:21.183Z,22.80
2019-04-20T15:11:50.658Z,22.80
2019-04-20T15:14:40.836Z,22.80
2019-04-20T15:17:02.633Z,22.60
2019-04-20T15:19:43.407Z,22.70
2019-04-20T15:22:29.712Z,22.60
2019-04-20T15:24:59.961Z,22.60
2019-04-20T15:27:28.686Z,22.80
2019-04-20T15:30:02.561Z,22.80
2019-04-20T15:32:33.196Z,22.70
2019-04-20T15:35:04.846Z,22.50
2019-04-20T15:37:45.485Z,22.50
2019-04-20T15:40:17.269Z,22.40
2019-04-20T15:42:59.016Z,22.50
2019-04-20T15:45:29.515Z,22.50
2019-04-20T15:48:12.573Z,22.30
2019-04-20T15:50:43.779Z,22.20
2019-04-20T15:53:15.592Z,22.30
2019-04-20T15:55:50.926Z,22.40
2019-04-20T15:58:22.709Z,22.40
2019-04-20T16:00:54.255Z,22.30
2019-04-20T16:03:25.708Z,22.30
2019-04-20T16:06:03.417Z,22.20
2019-04-20T16:08:42.191Z,22.30
2019-04-20T16:11:15.509Z,22.20
2019-04-20T16:13:53.572Z,22.20
2019-04-20T16:16:25.573Z,22.30
2019-04-20T16:19:06.242Z,22.20
2019-04-20T16:21:37.383Z,22.20
2019-04-20T16:24:32.960Z,22.20
2019-04-20T16:27:27.551Z,22.20
2019-04-20T16:29:56.101Z,22.20
2019-04-20T16:32:27.074Z,22.30
2019-04-20T16:34:56.158Z,22.20
2019-04-20T16:37:30.573Z,22.00
2019-04-20T16:40:09.744Z,22.00
2019-04-20T16:42:45.539Z,22.00
2019-04-20T16:45:19.627Z,22.00
2019-04-20T16:47:52.410Z,21.90
2019-04-20T16:50:26.896Z,21.70
2019-04-20T16:53:04.566Z,21.70
2019-04-20T16:55:38.808Z,21.90
2019-04-20T16:58:15.937Z,22.00
2019-04-20T17:00:50.000Z,21.90
2019-04-20T17:03:24.185Z,21.80
2019-04-20T17:05:53.869Z,21.80
2019-04-20T17:08:31.422Z,21.80
2019-04-20T17:11:05.485Z,21.70
2019-04-20T17:13:47.508Z,21.60
2019-04-20T17:16:13.425Z,21.40
2019-04-20T17:18:52.554Z,21.40
2019-04-20T17:21:29.016Z,21.30
2019-04-20T17:23:59.666Z,21.10
2019-04-20T17:26:45.165Z,21.00
2019-04-20T17:29:19.951Z,21.00
2019-04-20T17:32:05.521Z,21.00
2019-04-20T17:34:46.977Z,20.90
2019-04-20T17:37:06.709Z,20.80
2019-04-20T17:40:03.809Z,20.70
2019-04-20T17:42:25.083Z,20.80
2019-04-20T17:44:53.055Z,20.80
2019-04-20T17:47:37.613Z,20.80
2019-04-20T17:50:12.567Z,20.70
2019-04-20T17:52:44.834Z,20.60
2019-04-20T17:55:16.189Z,20.50
2019-04-20T17:57:37.304Z,20.40
2019-04-20T18:00:19.452Z,20.40
2019-04-20T18:03:09.954Z,20.30
2019-04-20T18:05:56.960Z,20.30
2019-04-20T18:08:31.405Z,20.20
2019-04-20T18:11:15.297Z,20.20
2019-04-20T18:13:45.023Z,20.10
2019-04-20T18:16:41.978Z,19.90
2019-04-20T18:19:21.781Z,19.80
2019-04-20T18:21:58.668Z,19.70
2019-04-20T18:24:59.663Z,19.60
2019-04-20T18:27:27.854Z,19.50
2019-04-20T18:29:58.858Z,19.50
2019-04-20T18:32:29.732Z,19.30
2019-04-20T18:35:14.009Z,19.30
2019-04-20T18:37:52.578Z,19.30
2019-04-20T18:40:29.111Z,19.30
2019-04-20T18:43:01.676Z,19.30
2019-04-20T18:45:53.477Z,19.10
2019-04-20T18:48:33.721Z,19.00
2019-04-20T18:50:46.644Z,19.00
2019-04-20T18:53:28.635Z,19.00
2019-04-20T18:55:58.734Z,18.90
2019-04-20T18:58:35.335Z,18.80
2019-04-20T19:01:08.025Z,18.70
2019-04-20T19:03:44.087Z,18.60
2019-04-20T19:06:18.072Z,18.60
2019-04-20T19:09:00.809Z,18.50
2019-04-20T19:11:30.902Z,18.40
2019-04-20T19:14:33.616Z,18.10
2019-04-20T19:17:08.935Z,17.90
2019-04-20T19:19:46.009Z,17.80
2019-04-20T19:22:19.687Z,17.90
2019-04-20T19:24:53.897Z,17.80
2019-04-20T19:27:36.104Z,17.80
2019-04-20T19:30:15.468Z,17.80
2019-04-20T19:33:02.408Z,17.70
2019-04-20T19:35:24.353Z,17.50
2019-04-20T19:38:01.726Z,17.30
2019-04-20T19:40:45.439Z,17.20
2019-04-20T19:43:14.789Z,17.00
2019-04-20T19:46:00.092Z,17.00
2019-04-20T19:48:45.215Z,17.20
2019-04-20T19:51:28.439Z,17.20
2019-04-20T19:54:08.850Z,17.20
2019-04-20T19:56:38.550Z,17.10
2019-04-20T19:59:02.601Z,17.10
2019-04-20T20:01:33.816Z,17.00
2019-04-20T20:04:09.907Z,16.90
2019-04-20T20:06:47.150Z,16.70
2019-04-20T20:09:18.235Z,16.60
2019-04-20T20:11:57.199Z,16.60
2019-04-20T20:14:36.807Z,16.60
2019-04-20T20:17:19.663Z,16.50
2019-04-20T20:20:06.751Z,16.40
2019-04-20T20:22:32.233Z,16.30
2019-04-20T20:24:56.884Z,16.10
2019-04-20T20:27:32.570Z,16.00
2019-04-20T20:30:05.598Z,15.90
2019-04-20T20:32:47.013Z,15.80
2019-04-20T20:35:15.440Z,15.70
2019-04-20T20:37:47.491Z,15.60
2019-04-20T20:40:21.038Z,15.40
2019-04-20T20:42:56.572Z,15.40
2019-04-20T20:45:37.197Z,15.30
2019-04-20T20:48:23.154Z,15.20
2019-04-20T20:50:54.555Z,15.00
2019-04-20T20:53:14.276Z,15.00
2019-04-20T20:56:03.954Z,14.90
2019-04-20T20:58:43.762Z,14.80
2019-04-20T21:01:04.358Z,14.70
2019-04-20T21:03:35.978Z,14.60
2019-04-20T21:06:09.644Z,14.40
2019-04-20T21:08:48.744Z,14.10
2019-04-20T21:11:23.455Z,13.90
2019-04-20T21:13:52.265Z,13.90
2019-04-20T21:16:27.623Z,13.80
2019-04-20T21:19:22.421Z,13.70
2019-04-20T21:21:51.648Z,13.50
2019-04-20T21:24:24.931Z,13.30
2019-04-20T21:27:01.625Z,13.20
2019-04-20T21:29:41.400Z,13.10
2019-04-20T21:32:12.573Z,13.00
2019-04-20T21:34:37.580Z,12.90
2019-04-20T21:37:12.725Z,12.80
2019-04-20T21:39:47.936Z,12.70
2019-04-20T21:42:15.924Z,12.60
2019-04-20T21:44:52.182Z,12.50
2019-04-20T21:47:30.732Z,12.50
2019-04-20T21:50:15.450Z,12.40
2019-04-20T21:52:43.014Z,12.30
2019-04-20T21:55:12.109Z,12.20
2019-04-20T21:57:58.388Z,12.10
2019-04-20T22:00:45.654Z,11.90
2019-04-20T22:03:15.525Z,11.80
2019-04-20T22:05:58.066Z,11.70
2019-04-20T22:08:34.552Z,11.60
2019-04-20T22:11:08.166Z,11.50
2019-04-20T22:13:42.105Z,11.40
2019-04-20T22:16:14.350Z,11.40
2019-04-20T22:19:09.121Z,11.40
2019-04-20T22:21:45.156Z,11.30
2019-04-20T22:24:15.516Z,11.20
2019-04-20T22:26:51.321Z,11.30
2019-04-20T22:29:18.342Z,11.30
2019-04-20T22:31:53.462Z,11.20
2019-04-20T22:34:25.024Z,11.10
2019-04-20T22:36:58.100Z,10.90
2019-04-20T22:39:47.686Z,10.80
2019-04-20T22:42:16.531Z,10.70
2019-04-20T22:44:54.735Z,10.70
2019-04-20T22:47:32.653Z,10.60
2019-04-20T22:50:15.108Z,10.50
2019-04-20T22:52:47.824Z,10.40
2019-04-20T22:55:41.106Z,10.40
2019-04-20T22:57:57.405Z,10.20
2019-04-20T23:00:36.049Z,10.20
2019-04-20T23:03:13.037Z,10.10
2019-04-20T23:05:42.720Z,10.10
2019-04-20T23:08:12.967Z,10.10
2019-04-20T23:10:44.809Z,10.00
2019-04-20T23:13:15.641Z,10.00
2019-04-20T23:15:50.064Z,9.90
2019-04-20T23:18:18.112Z,9.80
2019-04-20T23:21:05.066Z,9.80
2019-04-20T23:23:29.209Z,9.70
2019-04-20T23:26:03.007Z,9.60
2019-04-20T23:28:46.896Z,9.60
2019-04-20T23:34:38.831Z,9.40
2019-04-20T23:37:00.968Z,9.30
2019-04-20T23:39:41.493Z,9.30
2019-04-20T23:42:13.021Z,9.30
2019-04-20T23:45:02.205Z,9.20
2019-04-20T23:47:46.463Z,9.10
2019-04-20T23:50:43.581Z,9.00
2019-04-20T23:53:14.030Z,9.00
2019-04-20T23:55:26.009Z,8.90
2019-04-20T23:58:06.420Z,8.80
